Impacts METAR Board
IDs:

KINJ - Hillsboro Muni, TX, US

Updated at: 1300 UTC 13 Dec 2019
Potential Impact None Slight Moderate High
Time 13/01Z 13/02Z 13/03Z 13/04Z 13/05Z 13/06Z 13/07Z 13/08Z 13/09Z 13/10Z 13/11Z 13/12Z 13/13Z
Temp50 50 51 49 47 48 48 47 46 46 45 45 41
Dewpt43 44 45 46 46 47 47 47 45 43 44 43 41
Altim30.08 30.06 30.04 30.04 30.04 30.01 29.98 29.96 29.95 29.94 29.93 29.91 29.91
VIS10 10 10 10 10 10 10 10 10 10 10 10 10
CIG-- -- -- -- -- -- -- -- -- -- -- -- --
CoverCLRCLRCLRCLRCLRCLRCLRCLRCLRCLRCLRCLRCLR
FltCatVFRVFRVFRVFRVFRVFRVFRVFRVFRVFRVFRVFRVFR
WX--------------------------
WDir140130150150140160160170160170160170180
WSpd7 8 9 7 6 7 8 6 6 6 7 5 5
WGst-- -- -- -- -- -- -- -- -- -- -- -- --
Raw hourly METARs
KINJ 130055Z AUTO 14007KT 10SM CLR 10/06 A3008 RMK AO2 T01000062
KINJ 130155Z AUTO 13008KT 10SM CLR 10/07 A3006 RMK AO2 T01000066
KINJ 130255Z AUTO 15009KT 10SM CLR 10/07 A3004 RMK AO2 T01030072
KINJ 130355Z AUTO 15007KT 10SM CLR 09/08 A3004 RMK AO2 T00930077
KINJ 130455Z AUTO 14006KT 10SM CLR 08/08 A3004 RMK AO2 T00820079
KINJ 130555Z AUTO 16007KT 10SM CLR 09/08 A3001 RMK AO2 T00910084 10108 20081 401470013
KINJ 130655Z AUTO 16008KT 10SM CLR 09/09 A2998 RMK AO2 T00880086
KINJ 130755Z AUTO 17006KT 10SM CLR 09/08 A2996 RMK AO2 T00860084
KINJ 130855Z AUTO 16006KT 10SM CLR 08/07 A2995 RMK AO2 T00760072
KINJ 130955Z AUTO 17006KT 10SM CLR 08/06 A2994 RMK AO2 T00750061
KINJ 131055Z AUTO 16007KT 10SM CLR 07/07 A2993 RMK AO2 T00700066
KINJ 131155Z AUTO 17005KT 10SM CLR 07/06 A2991 RMK AO2 T00700062 10090 20065
KINJ 131255Z AUTO 18005KT 10SM CLR 05/05 A2991 RMK AO2 T00520052



Page loaded:  13:53 UTC  |   05:53 AM Pacific  |   06:53 AM Mountain  |   07:53 AM Central  |   08:53 AM Eastern

 

ADVISORIES

FORECASTS

FORECASTS

OBSERVATIONS

USER TOOLS

ABOUT US